createdAt,value
2017-09-03T00:02:23.363Z,81.10
2017-09-03T00:04:51.394Z,81.10
2017-09-03T00:07:18.951Z,81.10
2017-09-03T00:09:46.507Z,81.10
2017-09-03T00:12:14.122Z,81.10
2017-09-03T00:14:41.676Z,81.10
2017-09-03T00:17:09.651Z,81.10
2017-09-03T00:19:37.201Z,81.70
2017-09-03T00:22:04.893Z,81.40
2017-09-03T00:24:32.482Z,81.70
2017-09-03T00:27:00.040Z,81.70
2017-09-03T00:29:28.022Z,81.60
2017-09-03T00:31:55.593Z,81.90
2017-09-03T00:34:23.157Z,82.10
2017-09-03T00:36:50.810Z,81.90
2017-09-03T00:39:18.370Z,81.80
2017-09-03T00:41:46.330Z,82.60
2017-09-03T00:44:13.892Z,82.20
2017-09-03T00:46:41.451Z,82.00
2017-09-03T00:49:09.044Z,82.10
2017-09-03T00:51:36.586Z,82.10
2017-09-03T00:54:04.618Z,82.30
2017-09-03T00:56:32.181Z,82.50
2017-09-03T00:58:59.733Z,82.30
2017-09-03T01:01:27.377Z,82.50
2017-09-03T01:03:54.950Z,82.60
2017-09-03T01:06:22.947Z,82.30
2017-09-03T01:08:50.508Z,82.30
2017-09-03T01:11:18.075Z,82.30
2017-09-03T01:13:45.681Z,82.60
2017-09-03T01:16:13.241Z,82.90
2017-09-03T01:18:41.092Z,82.70
2017-09-03T01:21:08.660Z,82.60
2017-09-03T01:23:36.222Z,82.50
2017-09-03T01:26:03.811Z,82.70
2017-09-03T01:28:31.376Z,82.80
2017-09-03T01:30:59.229Z,82.80
2017-09-03T01:33:26.789Z,82.80
2017-09-03T01:35:54.355Z,82.90
2017-09-03T01:38:21.971Z,82.90
2017-09-03T01:40:49.536Z,82.90
2017-09-03T01:43:17.448Z,83.10
2017-09-03T01:45:45.010Z,83.90
2017-09-03T01:48:12.578Z,83.30
2017-09-03T01:50:40.155Z,83.20
2017-09-03T01:53:07.700Z,83.00
2017-09-03T01:55:35.576Z,83.00
2017-09-03T01:58:03.135Z,83.20
2017-09-03T02:00:30.688Z,82.60
2017-09-03T02:02:58.285Z,82.40
2017-09-03T02:05:25.865Z,83.10
2017-09-03T02:07:53.874Z,82.60
2017-09-03T02:10:21.439Z,82.40
2017-09-03T02:12:49.011Z,82.50
2017-09-03T02:15:16.631Z,82.30
2017-09-03T02:17:44.318Z,82.70
2017-09-03T02:20:12.184Z,82.60
2017-09-03T02:22:39.759Z,82.60
2017-09-03T02:25:07.347Z,82.60
2017-09-03T02:27:34.932Z,82.70
2017-09-03T02:30:02.628Z,82.70
2017-09-03T02:32:30.697Z,82.90
2017-09-03T02:34:58.280Z,82.90
2017-09-03T02:37:25.862Z,82.80
2017-09-03T02:39:53.458Z,82.90
2017-09-03T02:42:21.138Z,83.10
2017-09-03T02:44:48.993Z,83.00
2017-09-03T02:47:16.570Z,82.90
2017-09-03T02:49:44.151Z,83.00
2017-09-03T02:52:11.747Z,82.90
2017-09-03T02:54:39.318Z,83.10
2017-09-03T02:57:07.184Z,82.90
2017-09-03T02:59:34.781Z,83.10
2017-09-03T03:02:02.343Z,83.20
2017-09-03T03:04:29.945Z,83.00
2017-09-03T03:06:57.509Z,82.90
2017-09-03T03:09:25.385Z,82.80
2017-09-03T03:11:52.951Z,83.10
2017-09-03T03:14:20.562Z,83.10
2017-09-03T03:16:48.201Z,83.70
2017-09-03T03:19:15.782Z,83.10
2017-09-03T03:21:43.727Z,83.10
2017-09-03T03:24:11.294Z,83.20
2017-09-03T03:26:38.872Z,83.50
2017-09-03T03:29:06.465Z,83.80
2017-09-03T03:31:34.028Z,83.40
2017-09-03T03:34:02.045Z,83.20
2017-09-03T03:36:29.620Z,83.10
2017-09-03T03:38:57.159Z,83.50
2017-09-03T03:41:24.739Z,83.40
2017-09-03T03:43:52.301Z,83.40
2017-09-03T03:46:20.342Z,83.40
2017-09-03T03:48:47.891Z,83.40
2017-09-03T03:51:15.460Z,83.30
2017-09-03T03:53:43.059Z,83.20
2017-09-03T03:56:10.624Z,83.40
2017-09-03T03:58:38.477Z,83.40
2017-09-03T04:01:06.046Z,83.00
2017-09-03T04:03:33.807Z,82.90
2017-09-03T04:06:01.441Z,82.80
2017-09-03T04:08:29.006Z,82.60
2017-09-03T04:10:56.956Z,82.50
2017-09-03T04:13:24.624Z,83.50
2017-09-03T04:15:52.179Z,83.00
2017-09-03T04:18:19.786Z,82.90
2017-09-03T04:20:47.348Z,83.00
2017-09-03T04:23:15.209Z,82.90
2017-09-03T04:25:42.789Z,82.90
2017-09-03T04:28:10.345Z,83.20
2017-09-03T04:30:37.947Z,82.90
2017-09-03T04:33:05.531Z,82.90
2017-09-03T04:35:33.577Z,82.70
2017-09-03T04:38:01.136Z,83.10
2017-09-03T04:40:28.723Z,82.90
2017-09-03T04:42:56.325Z,82.90
2017-09-03T04:45:23.867Z,83.10
2017-09-03T04:47:51.891Z,83.20
2017-09-03T04:50:19.453Z,82.80
2017-09-03T04:52:47.013Z,82.60
2017-09-03T04:55:14.618Z,82.60
2017-09-03T04:57:42.167Z,82.90
2017-09-03T05:00:10.206Z,82.80
2017-09-03T05:02:37.763Z,82.90
2017-09-03T05:05:05.342Z,83.50
2017-09-03T05:07:32.945Z,83.40
2017-09-03T05:10:00.532Z,83.20
2017-09-03T05:12:28.504Z,83.40
2017-09-03T05:14:56.069Z,83.60
2017-09-03T05:17:23.650Z,83.40
2017-09-03T05:19:51.260Z,83.20
2017-09-03T05:22:18.818Z,83.50
2017-09-03T05:24:46.812Z,83.60
2017-09-03T05:27:14.365Z,83.10
2017-09-03T05:29:41.953Z,83.20
2017-09-03T05:32:09.536Z,83.10
2017-09-03T05:34:37.082Z,83.10
2017-09-03T05:37:05.118Z,82.90
2017-09-03T05:39:32.831Z,83.10
2017-09-03T05:42:00.402Z,83.10
2017-09-03T05:44:28.083Z,83.00
2017-09-03T05:46:55.642Z,82.80
2017-09-03T05:49:23.827Z,83.00
2017-09-03T05:51:51.454Z,82.90
2017-09-03T05:54:19.026Z,83.30
2017-09-03T05:56:46.674Z,82.90
2017-09-03T05:59:14.232Z,82.60
2017-09-03T06:01:42.148Z,82.60
2017-09-03T06:04:09.711Z,82.60
2017-09-03T06:06:37.277Z,82.40
2017-09-03T06:09:04.871Z,82.30
2017-09-03T06:11:32.431Z,82.10
2017-09-03T06:14:00.456Z,82.00
2017-09-03T06:16:28.042Z,81.80
2017-09-03T06:18:55.616Z,81.60
2017-09-03T06:21:23.288Z,81.70
2017-09-03T06:23:50.848Z,81.60
2017-09-03T06:26:18.858Z,81.30
2017-09-03T06:28:46.426Z,81.40
2017-09-03T06:31:14.010Z,81.90
2017-09-03T06:33:41.608Z,81.40
2017-09-03T06:36:09.174Z,81.40
2017-09-03T06:38:37.075Z,82.00
2017-09-03T06:41:04.653Z,81.50
2017-09-03T06:43:32.226Z,81.20
2017-09-03T06:45:59.893Z,80.90
2017-09-03T06:48:27.509Z,80.90
2017-09-03T06:50:55.758Z,80.60
2017-09-03T06:53:23.328Z,80.40
2017-09-03T06:55:50.913Z,80.20
2017-09-03T06:58:18.548Z,80.00
2017-09-03T07:00:46.142Z,79.90
2017-09-03T07:03:14.113Z,79.80
2017-09-03T07:05:41.714Z,79.80
2017-09-03T07:08:09.465Z,79.80
2017-09-03T07:10:37.096Z,79.50
2017-09-03T07:13:04.796Z,79.40
2017-09-03T07:15:32.816Z,79.30
2017-09-03T07:18:00.388Z,79.50
2017-09-03T07:20:27.997Z,79.40
2017-09-03T07:22:55.586Z,79.40
2017-09-03T07:25:23.170Z,79.20
2017-09-03T07:27:51.347Z,79.10
2017-09-03T07:30:18.910Z,79.00
2017-09-03T07:32:46.482Z,79.00
2017-09-03T07:35:14.281Z,78.70
2017-09-03T07:37:41.842Z,78.40
2017-09-03T07:40:09.839Z,78.00
2017-09-03T07:42:37.416Z,78.10
2017-09-03T07:45:04.989Z,78.10
2017-09-03T07:47:32.594Z,78.10
2017-09-03T07:50:00.160Z,78.10
2017-09-03T07:52:28.164Z,78.10
2017-09-03T07:54:55.720Z,78.10
2017-09-03T07:57:23.286Z,78.20
2017-09-03T07:59:50.900Z,78.30
2017-09-03T08:02:18.470Z,78.30
2017-09-03T08:04:46.480Z,78.40
2017-09-03T08:07:14.056Z,78.10
2017-09-03T08:09:41.622Z,78.70
2017-09-03T08:12:09.254Z,77.50
2017-09-03T08:14:36.812Z,77.30
2017-09-03T08:17:04.859Z,77.10
2017-09-03T08:19:32.438Z,77.10
2017-09-03T08:22:00.158Z,77.10
2017-09-03T08:24:27.788Z,76.90
2017-09-03T08:26:55.401Z,77.00
2017-09-03T08:29:23.316Z,76.70
2017-09-03T08:31:50.906Z,76.60
2017-09-03T08:34:18.479Z,76.70
2017-09-03T08:36:46.124Z,76.90
2017-09-03T08:39:13.713Z,76.90
2017-09-03T08:41:41.788Z,77.10
2017-09-03T08:44:09.367Z,76.90
2017-09-03T08:46:36.946Z,76.90
2017-09-03T08:49:04.547Z,76.80
2017-09-03T08:51:32.124Z,76.30
2017-09-03T08:54:00.056Z,76.70
2017-09-03T08:56:27.733Z,76.50
2017-09-03T08:58:55.372Z,76.50
2017-09-03T09:01:22.970Z,76.60
2017-09-03T09:03:50.539Z,76.70
2017-09-03T09:06:18.429Z,76.50
2017-09-03T09:08:46.150Z,76.50
2017-09-03T09:11:13.721Z,76.40
2017-09-03T09:13:41.328Z,75.80
2017-09-03T09:16:08.893Z,75.70
2017-09-03T09:18:36.940Z,75.30
2017-09-03T09:21:04.517Z,75.20
2017-09-03T09:23:32.096Z,74.90
2017-09-03T09:25:59.713Z,75.00
2017-09-03T09:28:27.304Z,74.90
2017-09-03T09:30:55.226Z,75.00
2017-09-03T09:33:22.816Z,75.00
2017-09-03T09:35:50.378Z,74.60
2017-09-03T09:38:17.973Z,74.40
2017-09-03T09:40:45.654Z,74.30
2017-09-03T09:43:13.663Z,74.10
2017-09-03T09:45:41.462Z,74.10
2017-09-03T09:48:09.052Z,74.10
2017-09-03T09:50:36.730Z,74.10
2017-09-03T09:53:04.335Z,74.10
2017-09-03T09:55:32.263Z,73.80
2017-09-03T09:57:59.971Z,73.50
2017-09-03T10:00:27.532Z,73.50
2017-09-03T10:02:55.166Z,73.50
2017-09-03T10:05:22.737Z,73.40
2017-09-03T10:07:50.764Z,73.10
2017-09-03T10:10:18.368Z,72.40
2017-09-03T10:12:45.969Z,72.50
2017-09-03T10:15:13.777Z,72.00
2017-09-03T10:17:41.366Z,71.70
2017-09-03T10:20:09.667Z,71.70
2017-09-03T10:22:37.246Z,71.40
2017-09-03T10:25:04.851Z,71.40
2017-09-03T10:27:33.250Z,71.40
2017-09-03T10:30:00.819Z,71.30
2017-09-03T10:35:02.721Z,70.80
2017-09-03T10:37:30.684Z,71.20
2017-09-03T10:39:58.264Z,70.90
2017-09-03T10:42:25.842Z,70.30
2017-09-03T10:44:53.501Z,69.20
2017-09-03T10:47:21.063Z,69.20
2017-09-03T10:49:48.963Z,69.30
2017-09-03T10:52:16.550Z,68.90
2017-09-03T10:54:44.170Z,67.40
2017-09-03T10:57:11.834Z,67.90
2017-09-03T10:59:39.433Z,67.10
2017-09-03T11:02:07.697Z,66.50
2017-09-03T11:04:35.462Z,65.60
2017-09-03T11:07:03.040Z,66.60
2017-09-03T11:09:30.695Z,67.50
2017-09-03T11:11:58.252Z,67.30
2017-09-03T11:14:26.253Z,67.40
2017-09-03T11:16:54.033Z,66.00
2017-09-03T11:19:21.584Z,65.80
2017-09-03T11:21:49.188Z,66.90
2017-09-03T11:24:16.753Z,66.80
2017-09-03T11:26:44.639Z,67.00
2017-09-03T11:29:12.233Z,66.90
2017-09-03T11:31:39.799Z,66.30
2017-09-03T11:34:07.435Z,65.80
2017-09-03T11:36:35.007Z,65.70
2017-09-03T11:39:03.066Z,65.40
2017-09-03T11:41:30.636Z,64.80
2017-09-03T11:43:58.210Z,64.60
2017-09-03T11:46:26.005Z,65.80
2017-09-03T11:48:53.623Z,66.00
2017-09-03T11:51:21.807Z,65.00
2017-09-03T11:53:49.406Z,64.70
2017-09-03T11:56:16.983Z,64.50
2017-09-03T11:58:44.619Z,64.80
2017-09-03T12:01:12.201Z,65.10
2017-09-03T12:03:40.095Z,65.80
2017-09-03T12:06:07.640Z,65.20
2017-09-03T12:08:35.226Z,65.10
2017-09-03T12:11:02.832Z,65.60
2017-09-03T12:13:30.428Z,66.20
2017-09-03T12:15:58.412Z,66.90
2017-09-03T12:18:26.013Z,65.40
2017-09-03T12:20:53.608Z,65.90
2017-09-03T12:23:21.242Z,65.80
2017-09-03T12:25:48.822Z,65.60
2017-09-03T12:28:16.684Z,65.60
2017-09-03T12:30:44.240Z,65.80
2017-09-03T12:33:11.834Z,66.10
2017-09-03T12:35:39.465Z,66.00
2017-09-03T12:38:07.017Z,65.90
2017-09-03T12:40:35.024Z,65.90
2017-09-03T12:43:02.663Z,65.20
2017-09-03T12:45:30.254Z,65.30
2017-09-03T12:47:57.839Z,65.30
2017-09-03T12:50:25.445Z,65.20
2017-09-03T12:52:53.540Z,65.70
2017-09-03T12:55:21.100Z,64.40
2017-09-03T12:57:48.660Z,64.80
2017-09-03T13:00:16.289Z,64.60
2017-09-03T13:02:43.850Z,64.10
2017-09-03T13:05:11.791Z,63.40
2017-09-03T13:07:39.354Z,64.10
2017-09-03T13:10:07.781Z,64.40
2017-09-03T13:12:35.411Z,64.00
2017-09-03T13:15:02.985Z,64.70
2017-09-03T13:17:30.991Z,63.90
2017-09-03T13:19:58.565Z,63.40
2017-09-03T13:22:26.144Z,63.30
2017-09-03T13:24:53.745Z,61.90
2017-09-03T13:27:21.326Z,59.70
2017-09-03T13:29:49.281Z,60.80
2017-09-03T13:32:16.885Z,60.40
2017-09-03T13:34:44.436Z,60.20
2017-09-03T13:37:12.041Z,60.00
2017-09-03T13:39:39.607Z,59.60
2017-09-03T13:42:07.611Z,60.00
2017-09-03T13:44:35.217Z,60.30
2017-09-03T13:47:02.801Z,58.50
2017-09-03T13:49:30.429Z,58.70
2017-09-03T13:51:58.002Z,58.20
2017-09-03T13:54:25.865Z,57.00
2017-09-03T13:56:53.466Z,55.20
2017-09-03T13:59:21.090Z,55.20
2017-09-03T14:01:48.716Z,55.70
2017-09-03T14:04:17.125Z,57.20
2017-09-03T14:06:45.039Z,57.20
2017-09-03T14:09:12.610Z,55.30
2017-09-03T14:11:40.190Z,58.50
2017-09-03T14:14:07.913Z,58.40
2017-09-03T14:16:35.476Z,58.50
2017-09-03T14:19:03.539Z,57.50
2017-09-03T14:21:31.132Z,57.70
2017-09-03T14:23:58.869Z,58.50
2017-09-03T14:26:26.476Z,58.50
2017-09-03T14:28:54.056Z,57.40
2017-09-03T14:31:21.966Z,58.30
2017-09-03T14:33:49.766Z,58.80
2017-09-03T14:36:17.359Z,58.40
2017-09-03T14:38:44.970Z,56.50
2017-09-03T14:41:12.538Z,58.40
2017-09-03T14:43:40.496Z,60.10
2017-09-03T14:46:08.096Z,60.20
2017-09-03T14:48:35.750Z,60.70
2017-09-03T14:51:03.369Z,60.80
2017-09-03T14:53:30.958Z,61.70
2017-09-03T14:55:58.832Z,62.10
2017-09-03T14:58:26.432Z,62.50
2017-09-03T15:00:53.989Z,62.50
2017-09-03T15:03:21.601Z,62.40
2017-09-03T15:05:49.161Z,62.40
2017-09-03T15:08:17.090Z,63.10
2017-09-03T15:10:44.645Z,63.20
2017-09-03T15:13:12.204Z,63.00
2017-09-03T15:15:39.813Z,63.30
2017-09-03T15:18:07.369Z,63.10
2017-09-03T15:20:35.421Z,63.10
2017-09-03T15:23:02.989Z,63.40
2017-09-03T15:25:30.547Z,63.70
2017-09-03T15:27:58.217Z,63.70
2017-09-03T15:30:25.802Z,63.70
2017-09-03T15:32:53.725Z,64.00
2017-09-03T15:35:21.278Z,64.10
2017-09-03T15:37:49.046Z,63.90
2017-09-03T15:40:16.653Z,64.00
2017-09-03T15:42:44.235Z,64.80
2017-09-03T15:45:12.197Z,64.40
2017-09-03T15:47:39.781Z,64.80
2017-09-03T15:50:07.367Z,65.00
2017-09-03T15:52:34.971Z,65.40
2017-09-03T15:55:02.542Z,65.70
2017-09-03T15:57:30.559Z,65.70
2017-09-03T15:59:58.103Z,65.70
2017-09-03T16:02:25.678Z,66.10
2017-09-03T16:04:53.294Z,65.70
2017-09-03T16:07:20.843Z,65.80
2017-09-03T16:09:48.855Z,65.80
2017-09-03T16:12:16.489Z,66.20
2017-09-03T16:14:44.101Z,65.30
2017-09-03T16:17:11.713Z,66.50
2017-09-03T16:19:39.286Z,66.60
2017-09-03T16:22:07.364Z,66.40
2017-09-03T16:24:34.942Z,65.70
2017-09-03T16:27:02.496Z,66.20
2017-09-03T16:29:30.875Z,66.50
2017-09-03T16:31:58.454Z,66.50
2017-09-03T16:34:26.325Z,66.40
2017-09-03T16:36:53.882Z,65.60
2017-09-03T16:39:21.464Z,66.40
2017-09-03T16:41:49.068Z,66.30
2017-09-03T16:44:16.613Z,66.30
2017-09-03T16:46:44.597Z,66.20
2017-09-03T16:49:12.159Z,66.20
2017-09-03T16:51:39.751Z,66.20
2017-09-03T16:54:07.351Z,66.10
2017-09-03T16:56:34.925Z,66.20
2017-09-03T16:59:03.919Z,66.10
2017-09-03T17:01:31.519Z,66.90
2017-09-03T17:03:59.103Z,67.30
2017-09-03T17:06:26.825Z,67.00
2017-09-03T17:08:54.397Z,67.20
2017-09-03T17:11:22.447Z,66.80
2017-09-03T17:13:50.041Z,66.80
2017-09-03T17:16:17.610Z,67.20
2017-09-03T17:18:45.198Z,66.90
2017-09-03T17:21:12.772Z,67.20
2017-09-03T17:23:40.647Z,67.10
2017-09-03T17:26:08.369Z,67.00
2017-09-03T17:28:35.922Z,67.00
2017-09-03T17:31:04.124Z,67.70
2017-09-03T17:33:31.854Z,68.00
2017-09-03T17:36:18.229Z,68.00
2017-09-03T17:39:01.421Z,68.10
2017-09-03T17:41:32.063Z,68.40
2017-09-03T17:44:01.032Z,68.70
2017-09-03T17:46:35.387Z,69.00
2017-09-03T17:49:02.969Z,69.20
2017-09-03T17:51:30.573Z,69.40
2017-09-03T17:53:58.202Z,69.30
2017-09-03T17:56:25.792Z,69.70
2017-09-03T17:58:53.694Z,69.70
2017-09-03T18:01:21.315Z,69.90
2017-09-03T18:03:48.897Z,70.50
2017-09-03T18:06:16.683Z,70.70
2017-09-03T18:08:45.174Z,71.10
2017-09-03T18:11:13.235Z,71.30
2017-09-03T18:13:40.833Z,71.40
2017-09-03T18:16:08.517Z,71.90
2017-09-03T18:18:36.136Z,72.20
2017-09-03T18:21:03.703Z,72.30
2017-09-03T18:23:31.740Z,72.50
2017-09-03T18:25:59.365Z,72.90
2017-09-03T18:28:29.336Z,73.60
2017-09-03T18:30:59.597Z,73.80
2017-09-03T18:33:27.153Z,73.60
2017-09-03T18:39:10.598Z,73.50
2017-09-03T18:41:38.195Z,73.60
2017-09-03T18:44:12.205Z,73.70
2017-09-03T18:46:39.814Z,73.70
2017-09-03T18:49:07.403Z,73.60
2017-09-03T18:51:45.259Z,73.60
2017-09-03T18:54:14.386Z,73.60
2017-09-03T18:56:41.960Z,73.80
2017-09-03T18:59:15.455Z,74.10
2017-09-03T19:01:43.047Z,74.50
2017-09-03T19:04:11.835Z,74.50
2017-09-03T19:06:39.404Z,74.20
2017-09-03T19:09:06.984Z,74.70
2017-09-03T19:11:34.608Z,74.70
2017-09-03T19:14:02.322Z,74.80
2017-09-03T19:16:30.422Z,75.00
2017-09-03T19:18:58.032Z,74.60
2017-09-03T19:21:25.600Z,74.90
2017-09-03T19:23:53.398Z,74.10
2017-09-03T19:26:22.189Z,74.90
2017-09-03T19:28:50.104Z,75.20
2017-09-03T19:31:17.706Z,75.40
2017-09-03T19:33:48.109Z,75.30
2017-09-03T19:36:15.952Z,75.60
2017-09-03T19:38:43.027Z,75.60
2017-09-03T19:41:10.951Z,75.40
2017-09-03T19:43:38.538Z,76.30
2017-09-03T19:46:06.111Z,76.00
2017-09-03T19:48:33.752Z,76.10
2017-09-03T19:51:01.353Z,76.00
2017-09-03T19:53:29.229Z,75.60
2017-09-03T19:55:56.786Z,75.90
2017-09-03T19:58:24.373Z,75.90
2017-09-03T20:00:52.052Z,76.00
2017-09-03T20:03:19.634Z,76.00
2017-09-03T20:05:47.711Z,75.50
2017-09-03T20:08:15.309Z,75.70
2017-09-03T20:10:42.867Z,75.70
2017-09-03T20:13:10.493Z,75.70
2017-09-03T20:15:38.825Z,76.10
2017-09-03T20:18:06.709Z,76.10
2017-09-03T20:20:34.273Z,76.20
2017-09-03T20:23:01.860Z,77.10
2017-09-03T20:25:29.503Z,77.10
2017-09-03T20:27:57.067Z,77.10
2017-09-03T20:30:25.131Z,77.00
2017-09-03T20:32:53.315Z,77.20
2017-09-03T20:35:20.937Z,77.00
2017-09-03T20:37:48.563Z,77.60
2017-09-03T20:40:16.142Z,77.50
2017-09-03T20:42:44.092Z,77.60
2017-09-03T20:45:11.670Z,77.90
2017-09-03T20:47:39.341Z,77.90
2017-09-03T20:50:06.974Z,77.70
2017-09-03T20:52:34.543Z,77.60
2017-09-03T20:55:02.574Z,77.90
2017-09-03T20:57:30.155Z,77.90
2017-09-03T20:59:57.734Z,78.60
2017-09-03T21:02:25.354Z,78.20
2017-09-03T21:04:52.939Z,78.10
2017-09-03T21:07:21.720Z,77.80
2017-09-03T21:09:49.287Z,77.20
2017-09-03T21:12:16.975Z,77.10
2017-09-03T21:14:44.595Z,77.10
2017-09-03T21:17:12.337Z,77.10
2017-09-03T21:19:40.410Z,77.00
2017-09-03T21:22:08.006Z,77.00
2017-09-03T21:24:35.569Z,77.00
2017-09-03T21:27:03.433Z,76.90
2017-09-03T21:29:31.000Z,77.40
2017-09-03T21:31:58.963Z,77.00
2017-09-03T21:34:26.600Z,77.20
2017-09-03T21:36:54.188Z,77.40
2017-09-03T21:39:21.796Z,77.90
2017-09-03T21:41:49.490Z,78.30
2017-09-03T21:44:17.445Z,78.00
2017-09-03T21:46:45.035Z,78.00
2017-09-03T21:49:12.843Z,78.30
2017-09-03T21:51:40.467Z,78.50
2017-09-03T21:54:08.162Z,78.30
2017-09-03T21:56:36.060Z,78.00
2017-09-03T21:59:03.612Z,78.00
2017-09-03T22:01:31.230Z,78.20
2017-09-03T22:03:58.966Z,78.10
2017-09-03T22:06:26.518Z,78.20
2017-09-03T22:08:54.448Z,77.90
2017-09-03T22:11:22.008Z,77.50
2017-09-03T22:13:49.589Z,77.70
2017-09-03T22:16:17.201Z,78.20
2017-09-03T22:18:44.782Z,78.20
2017-09-03T22:21:12.810Z,77.90
2017-09-03T22:23:40.363Z,77.70
2017-09-03T22:26:07.955Z,77.80
2017-09-03T22:28:35.551Z,78.10
2017-09-03T22:31:03.095Z,78.80
2017-09-03T22:33:31.122Z,78.10
2017-09-03T22:35:58.689Z,77.70
2017-09-03T22:38:26.248Z,77.60
2017-09-03T22:40:53.846Z,77.60
2017-09-03T22:43:21.397Z,77.80
2017-09-03T22:45:49.260Z,77.60
2017-09-03T22:48:16.817Z,77.50
2017-09-03T22:50:44.373Z,77.70
2017-09-03T22:53:11.990Z,77.70
2017-09-03T22:55:39.551Z,77.60
2017-09-03T22:58:07.484Z,77.80
2017-09-03T23:00:47.628Z,77.70
2017-09-03T23:03:16.482Z,77.90
2017-09-03T23:05:44.100Z,78.10
2017-09-03T23:08:11.665Z,78.00
2017-09-03T23:10:39.300Z,77.80
2017-09-03T23:13:06.890Z,77.80
2017-09-03T23:15:34.896Z,77.40
2017-09-03T23:18:02.539Z,77.50
2017-09-03T23:20:30.122Z,77.90
2017-09-03T23:22:57.743Z,78.00
2017-09-03T23:25:25.342Z,77.70
2017-09-03T23:27:53.402Z,77.80
2017-09-03T23:30:20.966Z,77.50
2017-09-03T23:32:48.545Z,77.60
2017-09-03T23:35:16.163Z,77.70
2017-09-03T23:37:43.781Z,77.60
2017-09-03T23:40:11.646Z,77.60
2017-09-03T23:42:39.239Z,77.50
2017-09-03T23:45:06.800Z,77.40
2017-09-03T23:47:34.473Z,77.30
2017-09-03T23:50:02.069Z,77.50
2017-09-03T23:52:30.003Z,77.40
2017-09-03T23:54:57.578Z,77.50
2017-09-03T23:57:25.211Z,77.80
2017-09-03T23:59:52.832Z,78.00
